sensor_id;sensor_type;location;lat;lon;timestamp;pressure;altitude;pressure_sealevel;temperature;humidity
69911;BME280;63555;49.920;17.868;2024-02-14T00:03:38;99256.94;;;-2.15;86.26
69911;BME280;63555;49.920;17.868;2024-02-14T00:08:39;99258.75;;;-2.22;86.44
69911;BME280;63555;49.920;17.868;2024-02-14T00:13:39;99263.97;;;-2.25;86.92
69911;BME280;63555;49.920;17.868;2024-02-14T00:18:39;99257.09;;;-2.26;86.29
69911;BME280;63555;49.920;17.868;2024-02-14T00:23:40;99257.19;;;-2.31;86.17
69911;BME280;63555;49.920;17.868;2024-02-14T00:28:40;99259.00;;;-2.36;86.46
69911;BME280;63555;49.920;17.868;2024-02-14T00:33:40;99259.00;;;-2.36;86.46
69911;BME280;63555;49.920;17.868;2024-02-14T00:38:41;99263.41;;;-2.44;85.89
69911;BME280;63555;49.920;17.868;2024-02-14T00:43:41;99255.66;;;-2.44;86.37
69911;BME280;63555;49.920;17.868;2024-02-14T00:48:42;99260.00;;;-2.46;86.15
69911;BME280;63555;49.920;17.868;2024-02-14T00:53:42;99268.63;;;-2.47;86.22
69911;BME280;63555;49.920;17.868;2024-02-14T00:58:43;99271.31;;;-2.53;86.50
69911;BME280;63555;49.920;17.868;2024-02-14T01:03:43;99261.91;;;-2.57;86.52
69911;BME280;63555;49.920;17.868;2024-02-14T01:08:44;99257.63;;;-2.58;87.31
69911;BME280;63555;49.920;17.868;2024-02-14T01:13:44;99262.72;;;-2.53;88.04
69911;BME280;63555;49.920;17.868;2024-02-14T01:18:45;99255.75;;;-2.48;88.88
69911;BME280;63555;49.920;17.868;2024-02-14T01:23:45;99259.00;;;-2.37;89.51
69911;BME280;63555;49.920;17.868;2024-02-14T01:28:45;99244.22;;;-2.28;90.14
69911;BME280;63555;49.920;17.868;2024-02-14T01:33:46;99242.38;;;-2.19;90.19
69911;BME280;63555;49.920;17.868;2024-02-14T01:38:46;99238.94;;;-2.21;89.68
69911;BME280;63555;49.920;17.868;2024-02-14T01:43:47;99232.09;;;-2.24;89.30
69911;BME280;63555;49.920;17.868;2024-02-14T01:48:47;99248.47;;;-2.23;89.57
69911;BME280;63555;49.920;17.868;2024-02-14T01:53:48;99231.28;;;-2.26;88.64
69911;BME280;63555;49.920;17.868;2024-02-14T01:58:48;99234.88;;;-2.35;87.99
69911;BME280;63555;49.920;17.868;2024-02-14T02:03:49;99238.47;;;-2.45;87.60
69911;BME280;63555;49.920;17.868;2024-02-14T02:08:50;99235.13;;;-2.51;87.13
69911;BME280;63555;49.920;17.868;2024-02-14T02:13:50;99231.78;;;-2.58;87.17
69911;BME280;63555;49.920;17.868;2024-02-14T02:18:50;99237.84;;;-2.62;87.27
69911;BME280;63555;49.920;17.868;2024-02-14T02:23:51;99236.25;;;-2.71;86.94
69911;BME280;63555;49.920;17.868;2024-02-14T02:28:51;99244.03;;;-2.74;87.43
69911;BME280;63555;49.920;17.868;2024-02-14T02:33:52;99244.16;;;-2.81;86.77
69911;BME280;63555;49.920;17.868;2024-02-14T02:38:52;99259.72;;;-2.88;87.12
69911;BME280;63555;49.920;17.868;2024-02-14T02:43:53;99261.44;;;-2.88;87.64
69911;BME280;63555;49.920;17.868;2024-02-14T02:48:54;99259.81;;;-2.94;87.12
69911;BME280;63555;49.920;17.868;2024-02-14T02:53:55;99252.91;;;-2.93;86.91
69911;BME280;63555;49.920;17.868;2024-02-14T02:58:55;99255.56;;;-2.98;87.10
69911;BME280;63555;49.920;17.868;2024-02-14T03:03:56;99266.75;;;-2.99;87.14
69911;BME280;63555;49.920;17.868;2024-02-14T03:08:56;99271.84;;;-2.94;87.84
69911;BME280;63555;49.920;17.868;2024-02-14T03:13:57;99271.00;;;-2.95;88.48
69911;BME280;63555;49.920;17.868;2024-02-14T03:18:57;99277.06;;;-2.97;87.99
69911;BME280;63555;49.920;17.868;2024-02-14T03:23:58;99289.97;;;-2.99;87.53
69911;BME280;63555;49.920;17.868;2024-02-14T03:29:03;99290.03;;;-3.03;87.13
69911;BME280;63555;49.920;17.868;2024-02-14T03:34:06;99283.25;;;-3.10;87.04
69911;BME280;63555;49.920;17.868;2024-02-14T03:39:06;99285.00;;;-3.14;87.38
69911;BME280;63555;49.920;17.868;2024-02-14T03:44:07;99279.03;;;-3.16;87.09
69911;BME280;63555;49.920;17.868;2024-02-14T03:49:09;99290.22;;;-3.18;86.96
69911;BME280;63555;49.920;17.868;2024-02-14T03:54:09;99287.69;;;-3.22;86.94
69911;BME280;63555;49.920;17.868;2024-02-14T03:59:09;99297.22;;;-3.30;86.19
69911;BME280;63555;49.920;17.868;2024-02-14T04:04:11;99295.63;;;-3.40;86.74
69911;BME280;63555;49.920;17.868;2024-02-14T04:09:11;99299.13;;;-3.44;86.60
69911;BME280;63555;49.920;17.868;2024-02-14T04:14:12;99296.56;;;-3.50;86.37
69911;BME280;63555;49.920;17.868;2024-02-14T04:19:12;99284.53;;;-3.48;86.92
69911;BME280;63555;49.920;17.868;2024-02-14T04:24:13;99293.13;;;-3.50;86.58
69911;BME280;63555;49.920;17.868;2024-02-14T04:29:13;99285.44;;;-3.54;86.53
69911;BME280;63555;49.920;17.868;2024-02-14T04:34:14;99282.03;;;-3.56;86.15
69911;BME280;63555;49.920;17.868;2024-02-14T04:39:14;99280.34;;;-3.60;86.35
69911;BME280;63555;49.920;17.868;2024-02-14T04:44:14;99283.78;;;-3.61;86.27
69911;BME280;63555;49.920;17.868;2024-02-14T04:49:15;99288.97;;;-3.64;86.45
69911;BME280;63555;49.920;17.868;2024-02-14T04:54:15;99289.94;;;-3.72;86.58
69911;BME280;63555;49.920;17.868;2024-02-14T04:59:16;99294.19;;;-3.70;87.01
69911;BME280;63555;49.920;17.868;2024-02-14T05:04:17;99285.56;;;-3.66;87.22
69911;BME280;63555;49.920;17.868;2024-02-14T05:09:18;99277.00;;;-3.68;86.92
69911;BME280;63555;49.920;17.868;2024-02-14T05:14:19;99279.59;;;-3.71;86.71
69911;BME280;63555;49.920;17.868;2024-02-14T05:19:19;99289.94;;;-3.72;86.77
69911;BME280;63555;49.920;17.868;2024-02-14T05:24:21;99288.28;;;-3.79;87.29
69911;BME280;63555;49.920;17.868;2024-02-14T05:29:22;99293.44;;;-3.79;87.19
69911;BME280;63555;49.920;17.868;2024-02-14T05:34:22;99284.84;;;-3.80;87.16
69911;BME280;63555;49.920;17.868;2024-02-14T05:39:24;99291.69;;;-3.76;87.31
69911;BME280;63555;49.920;17.868;2024-02-14T05:44:24;99302.88;;;-3.78;87.43
69911;BME280;63555;49.920;17.868;2024-02-14T05:49:27;99292.59;;;-3.80;87.56
69911;BME280;63555;49.920;17.868;2024-02-14T05:54:27;99292.56;;;-3.77;87.71
69911;BME280;63555;49.920;17.868;2024-02-14T05:59:28;99295.94;;;-3.73;88.22
69911;BME280;63555;49.920;17.868;2024-02-14T06:04:28;99300.19;;;-3.66;88.51
69911;BME280;63555;49.920;17.868;2024-02-14T06:09:29;99294.09;;;-3.61;88.88
69911;BME280;63555;49.920;17.868;2024-02-14T06:14:29;99300.06;;;-3.56;89.13
69911;BME280;63555;49.920;17.868;2024-02-14T06:19:31;99303.44;;;-3.50;89.50
69911;BME280;63555;49.920;17.868;2024-02-14T06:24:32;99300.84;;;-3.44;89.58
69911;BME280;63555;49.920;17.868;2024-02-14T06:29:32;99296.53;;;-3.42;89.57
69911;BME280;63555;49.920;17.868;2024-02-14T06:34:32;99296.50;;;-3.41;89.65
69911;BME280;63555;49.920;17.868;2024-02-14T06:39:33;99305.03;;;-3.36;90.12
69911;BME280;63555;49.920;17.868;2024-02-14T06:44:33;99316.88;;;-3.19;90.46
69911;BME280;63555;49.920;17.868;2024-02-14T06:49:34;99305.56;;;-3.08;91.64
69911;BME280;63555;49.920;17.868;2024-02-14T06:54:34;99307.03;;;-2.89;91.76
69911;BME280;63555;49.920;17.868;2024-02-14T06:59:34;99307.72;;;-2.76;92.12
69911;BME280;63555;49.920;17.868;2024-02-14T07:04:37;99303.25;;;-2.60;92.83
69911;BME280;63555;49.920;17.868;2024-02-14T07:09:37;99306.47;;;-2.46;93.05
69911;BME280;63555;49.920;17.868;2024-02-14T07:14:39;99299.44;;;-2.36;93.01
69911;BME280;63555;49.920;17.868;2024-02-14T07:19:39;99303.56;;;-2.23;93.51
69911;BME280;63555;49.920;17.868;2024-02-14T07:24:40;99305.13;;;-2.13;93.64
69911;BME280;63555;49.920;17.868;2024-02-14T07:29:41;99298.88;;;-2.00;93.77
69911;BME280;63555;49.920;17.868;2024-02-14T07:34:41;99302.09;;;-1.87;94.57
69911;BME280;63555;49.920;17.868;2024-02-14T07:39:41;99301.88;;;-1.75;94.89
69911;BME280;63555;49.920;17.868;2024-02-14T07:44:42;99311.09;;;-1.58;95.40
69911;BME280;63555;49.920;17.868;2024-02-14T07:49:42;99305.69;;;-1.45;95.52
69911;BME280;63555;49.920;17.868;2024-02-14T07:54:43;99312.28;;;-1.29;96.25
69911;BME280;63555;49.920;17.868;2024-02-14T07:59:43;99312.81;;;-1.13;96.37
69911;BME280;63555;49.920;17.868;2024-02-14T08:04:43;99317.63;;;-0.94;96.83
69911;BME280;63555;49.920;17.868;2024-02-14T08:09:44;99300.69;;;-0.29;97.91
69911;BME280;63555;49.920;17.868;2024-02-14T08:14:44;99294.47;;;0.48;97.19
69911;BME280;63555;49.920;17.868;2024-02-14T08:19:44;99296.31;;;1.08;96.46
69911;BME280;63555;49.920;17.868;2024-02-14T08:24:45;99286.34;;;1.51;96.02
69911;BME280;63555;49.920;17.868;2024-02-14T08:29:45;99294.78;;;1.87;96.58
69911;BME280;63555;49.920;17.868;2024-02-14T08:34:46;99288.69;;;2.40;96.12
69911;BME280;63555;49.920;17.868;2024-02-14T08:39:47;99285.69;;;2.77;96.03
69911;BME280;63555;49.920;17.868;2024-02-14T08:44:48;99291.53;;;3.30;95.90
69911;BME280;63555;49.920;17.868;2024-02-14T08:49:48;99282.75;;;3.78;95.49
69911;BME280;63555;49.920;17.868;2024-02-14T08:54:49;99291.06;;;4.30;95.02
69911;BME280;63555;49.920;17.868;2024-02-14T08:59:49;99282.59;;;4.65;94.10
69911;BME280;63555;49.920;17.868;2024-02-14T09:04:50;99285.94;;;5.08;93.33
69911;BME280;63555;49.920;17.868;2024-02-14T09:09:51;99281.94;;;5.57;92.55
69911;BME280;63555;49.920;17.868;2024-02-14T09:14:51;99276.22;;;6.04;91.20
69911;BME280;63555;49.920;17.868;2024-02-14T09:19:52;99275.28;;;6.41;90.55
69911;BME280;63555;49.920;17.868;2024-02-14T09:24:52;99275.16;;;6.77;90.12
69911;BME280;63555;49.920;17.868;2024-02-14T09:29:52;99275.56;;;7.35;89.75
69911;BME280;63555;49.920;17.868;2024-02-14T09:34:53;99277.28;;;7.99;88.95
69911;BME280;63555;49.920;17.868;2024-02-14T09:39:53;99274.09;;;8.54;86.77
69911;BME280;63555;49.920;17.868;2024-02-14T09:44:58;99280.09;;;8.86;85.66
69911;BME280;63555;49.920;17.868;2024-02-14T09:50:01;99277.19;;;9.05;84.96
69911;BME280;63555;49.920;17.868;2024-02-14T09:55:03;99270.72;;;8.97;83.69
69911;BME280;63555;49.920;17.868;2024-02-14T10:00:06;99271.09;;;8.90;83.50
69911;BME280;63555;49.920;17.868;2024-02-14T10:05:07;99275.41;;;8.91;82.10
69911;BME280;63555;49.920;17.868;2024-02-14T10:10:07;99275.03;;;9.12;80.84
69911;BME280;63555;49.920;17.868;2024-02-14T10:15:08;99273.25;;;9.12;78.92
69911;BME280;63555;49.920;17.868;2024-02-14T10:20:09;99278.41;;;9.14;77.63
69911;BME280;63555;49.920;17.868;2024-02-14T10:25:11;99267.03;;;9.27;77.39
69911;BME280;63555;49.920;17.868;2024-02-14T10:30:12;99269.56;;;9.43;75.18
69911;BME280;63555;49.920;17.868;2024-02-14T10:35:13;99262.22;;;9.48;73.62
69911;BME280;63555;49.920;17.868;2024-02-14T10:40:13;99254.88;;;9.68;72.73
69911;BME280;63555;49.920;17.868;2024-02-14T10:45:13;99247.72;;;10.76;71.00
69911;BME280;63555;49.920;17.868;2024-02-14T10:50:15;99240.38;;;11.43;67.52
69911;BME280;63555;49.920;17.868;2024-02-14T10:55:16;99239.38;;;11.57;66.49
69911;BME280;63555;49.920;17.868;2024-02-14T11:00:17;99230.88;;;12.25;64.26
69911;BME280;63555;49.920;17.868;2024-02-14T11:05:19;99234.69;;;13.24;62.54
69911;BME280;63555;49.920;17.868;2024-02-14T11:10:23;99221.75;;;14.60;59.15
69911;BME280;63555;49.920;17.868;2024-02-14T11:15:24;99218.25;;;15.82;56.71
69911;BME280;63555;49.920;17.868;2024-02-14T11:20:32;99219.38;;;16.76;53.58
69911;BME280;63555;49.920;17.868;2024-02-14T11:25:33;99205.44;;;17.38;52.19
69911;BME280;63555;49.920;17.868;2024-02-14T11:30:34;99201.44;;;17.97;50.59
69911;BME280;63555;49.920;17.868;2024-02-14T11:35:35;99203.16;;;18.60;48.90
69911;BME280;63555;49.920;17.868;2024-02-14T11:40:38;99193.94;;;18.19;47.63
69911;BME280;63555;49.920;17.868;2024-02-14T11:45:39;99201.97;;;16.91;49.32
69911;BME280;63555;49.920;17.868;2024-02-14T11:50:43;99192.66;;;15.81;50.27
69911;BME280;63555;49.920;17.868;2024-02-14T11:55:45;99175.00;;;15.30;50.78
69911;BME280;63555;49.920;17.868;2024-02-14T12:00:49;99174.72;;;16.02;48.30
69911;BME280;63555;49.920;17.868;2024-02-14T12:05:50;99186.44;;;16.77;47.05
69911;BME280;63555;49.920;17.868;2024-02-14T12:10:51;99178.78;;;16.25;47.36
69911;BME280;63555;49.920;17.868;2024-02-14T12:15:51;99173.53;;;15.56;47.51
69911;BME280;63555;49.920;17.868;2024-02-14T12:21:03;99162.00;;;14.87;48.84
69911;BME280;63555;49.920;17.868;2024-02-14T12:26:04;99162.16;;;14.44;49.38
69911;BME280;63555;49.920;17.868;2024-02-14T12:31:07;99159.47;;;14.02;49.36
69911;BME280;63555;49.920;17.868;2024-02-14T12:36:08;99160.03;;;13.30;50.72
69911;BME280;63555;49.920;17.868;2024-02-14T12:41:08;99159.19;;;12.74;51.63
69911;BME280;63555;49.920;17.868;2024-02-14T12:46:08;99158.44;;;12.38;51.89
69911;BME280;63555;49.920;17.868;2024-02-14T12:51:09;99165.63;;;12.25;52.58
69911;BME280;63555;49.920;17.868;2024-02-14T12:56:10;99154.25;;;12.12;52.59
69911;BME280;63555;49.920;17.868;2024-02-14T13:01:10;99139.81;;;12.05;53.27
69911;BME280;63555;49.920;17.868;2024-02-14T13:06:12;99136.56;;;12.01;53.42
69911;BME280;63555;49.920;17.868;2024-02-14T13:11:14;99134.38;;;11.95;53.33
69911;BME280;63555;49.920;17.868;2024-02-14T13:16:15;99137.16;;;11.94;53.49
69911;BME280;63555;49.920;17.868;2024-02-14T13:21:15;99138.19;;;11.80;53.92
69911;BME280;63555;49.920;17.868;2024-02-14T13:26:16;99139.16;;;11.66;53.90
69911;BME280;63555;49.920;17.868;2024-02-14T13:31:17;99139.84;;;11.33;54.69
69911;BME280;63555;49.920;17.868;2024-02-14T13:36:18;99141.53;;;11.34;55.48
69911;BME280;63555;49.920;17.868;2024-02-14T13:41:19;99130.84;;;11.60;54.91
69911;BME280;63555;49.920;17.868;2024-02-14T13:46:19;99126.88;;;11.78;54.81
69911;BME280;63555;49.920;17.868;2024-02-14T13:51:20;99127.41;;;11.70;54.84
69911;BME280;63555;49.920;17.868;2024-02-14T13:56:21;99119.13;;;11.40;55.66
69911;BME280;63555;49.920;17.868;2024-02-14T14:01:22;99117.28;;;11.29;55.51
69911;BME280;63555;49.920;17.868;2024-02-14T14:06:24;99111.91;;;11.18;55.73
69911;BME280;63555;49.920;17.868;2024-02-14T14:11:24;99124.06;;;11.08;55.87
69911;BME280;63555;49.920;17.868;2024-02-14T14:16:25;99118.97;;;10.81;56.33
69911;BME280;63555;49.920;17.868;2024-02-14T14:21:25;99118.06;;;10.44;57.09
69911;BME280;63555;49.920;17.868;2024-02-14T14:26:25;99116.75;;;10.11;57.22
69911;BME280;63555;49.920;17.868;2024-02-14T14:31:26;99117.97;;;9.80;57.96
69911;BME280;63555;49.920;17.868;2024-02-14T14:36:27;99112.88;;;9.65;58.67
69911;BME280;63555;49.920;17.868;2024-02-14T14:41:27;99117.31;;;9.50;59.20
69911;BME280;63555;49.920;17.868;2024-02-14T14:46:28;99114.66;;;9.37;59.48
69911;BME280;63555;49.920;17.868;2024-02-14T14:51:31;99116.09;;;9.29;59.80
69911;BME280;63555;49.920;17.868;2024-02-14T14:56:31;99116.88;;;9.16;60.03
69911;BME280;63555;49.920;17.868;2024-02-14T15:01:34;99106.00;;;9.08;60.27
69911;BME280;63555;49.920;17.868;2024-02-14T15:06:35;99109.53;;;8.94;60.75
69911;BME280;63555;49.920;17.868;2024-02-14T15:11:35;99111.44;;;8.78;61.32
69911;BME280;63555;49.920;17.868;2024-02-14T15:16:36;99115.81;;;8.63;61.78
69911;BME280;63555;49.920;17.868;2024-02-14T15:21:36;99112.91;;;8.54;62.20
69911;BME280;63555;49.920;17.868;2024-02-14T15:26:37;99115.38;;;8.43;63.14
69911;BME280;63555;49.920;17.868;2024-02-14T15:31:49;99107.63;;;8.25;63.12
69911;BME280;63555;49.920;17.868;2024-02-14T15:37:08;99114.75;;;8.09;63.75
69911;BME280;63555;49.920;17.868;2024-02-14T15:42:08;99119.97;;;7.95;64.23
69911;BME280;63555;49.920;17.868;2024-02-14T15:47:10;99120.00;;;7.79;64.76
69911;BME280;63555;49.920;17.868;2024-02-14T15:52:11;99120.22;;;7.60;64.78
69911;BME280;63555;49.920;17.868;2024-02-14T15:57:13;99139.81;;;7.39;64.94
69911;BME280;63555;49.920;17.868;2024-02-14T16:02:13;99132.31;;;7.17;65.61
69911;BME280;63555;49.920;17.868;2024-02-14T16:07:13;99140.63;;;6.94;66.21
69911;BME280;63555;49.920;17.868;2024-02-14T16:12:14;99142.69;;;6.71;66.43
69911;BME280;63555;49.920;17.868;2024-02-14T16:17:15;99139.19;;;6.55;66.98
69911;BME280;63555;49.920;17.868;2024-02-14T16:22:15;99139.22;;;6.38;67.85
69911;BME280;63555;49.920;17.868;2024-02-14T16:27:16;99147.66;;;6.27;68.35
69911;BME280;63555;49.920;17.868;2024-02-14T16:32:17;99146.44;;;6.17;68.21
69911;BME280;63555;49.920;17.868;2024-02-14T16:37:18;99144.41;;;6.05;69.18
69911;BME280;63555;49.920;17.868;2024-02-14T16:42:19;99152.81;;;5.94;69.56
69911;BME280;63555;49.920;17.868;2024-02-14T16:47:19;99150.72;;;5.84;70.38
69911;BME280;63555;49.920;17.868;2024-02-14T16:52:20;99155.31;;;5.79;70.92
69911;BME280;63555;49.920;17.868;2024-02-14T16:57:20;99163.47;;;5.72;71.16
69911;BME280;63555;49.920;17.868;2024-02-14T17:02:20;99156.00;;;5.65;71.63
69911;BME280;63555;49.920;17.868;2024-02-14T17:07:21;99156.31;;;5.59;71.52
69911;BME280;63555;49.920;17.868;2024-02-14T17:12:21;99153.84;;;5.56;71.71
69911;BME280;63555;49.920;17.868;2024-02-14T17:17:23;99145.06;;;5.57;72.10
69911;BME280;63555;49.920;17.868;2024-02-14T17:22:23;99149.09;;;5.64;72.45
69911;BME280;63555;49.920;17.868;2024-02-14T17:27:24;99165.09;;;5.75;72.76
69911;BME280;63555;49.920;17.868;2024-02-14T17:32:24;99158.47;;;5.85;73.58
69911;BME280;63555;49.920;17.868;2024-02-14T17:37:25;99159.97;;;5.91;72.77
69911;BME280;63555;49.920;17.868;2024-02-14T17:42:25;99164.97;;;5.95;72.98
69911;BME280;63555;49.920;17.868;2024-02-14T17:47:26;99155.19;;;5.99;73.41
69911;BME280;63555;49.920;17.868;2024-02-14T17:52:28;99156.88;;;6.00;73.35
69911;BME280;63555;49.920;17.868;2024-02-14T17:57:28;99165.50;;;6.02;73.52
69911;BME280;63555;49.920;17.868;2024-02-14T18:02:29;99163.75;;;6.02;73.84
69911;BME280;63555;49.920;17.868;2024-02-14T18:07:29;99166.34;;;6.02;73.68
69911;BME280;63555;49.920;17.868;2024-02-14T18:12:30;99171.59;;;6.02;73.96
69911;BME280;63555;49.920;17.868;2024-02-14T18:17:30;99178.53;;;6.03;73.21
69911;BME280;63555;49.920;17.868;2024-02-14T18:22:30;99181.16;;;6.03;73.88
69911;BME280;63555;49.920;17.868;2024-02-14T18:27:31;99180.09;;;6.07;73.79
69911;BME280;63555;49.920;17.868;2024-02-14T18:32:32;99178.25;;;6.10;73.82
69911;BME280;63555;49.920;17.868;2024-02-14T18:37:33;99176.41;;;6.12;73.87
69911;BME280;63555;49.920;17.868;2024-02-14T18:42:33;99177.16;;;6.14;74.26
69911;BME280;63555;49.920;17.868;2024-02-14T18:47:34;99182.16;;;6.18;74.04
69911;BME280;63555;49.920;17.868;2024-02-14T18:52:35;99180.41;;;6.19;74.03
69911;BME280;63555;49.920;17.868;2024-02-14T18:57:35;99178.47;;;6.22;74.58
69911;BME280;63555;49.920;17.868;2024-02-14T19:02:36;99179.84;;;6.29;74.12
69911;BME280;63555;49.920;17.868;2024-02-14T19:07:38;99179.84;;;6.29;74.69
69911;BME280;63555;49.920;17.868;2024-02-14T19:12:39;99184.16;;;6.30;74.94
69911;BME280;63555;49.920;17.868;2024-02-14T19:17:39;99182.38;;;6.31;75.21
69911;BME280;63555;49.920;17.868;2024-02-14T19:22:40;99181.63;;;6.29;75.14
69911;BME280;63555;49.920;17.868;2024-02-14T19:27:40;99183.38;;;6.28;75.12
69911;BME280;63555;49.920;17.868;2024-02-14T19:32:41;99186.94;;;6.27;75.71
69911;BME280;63555;49.920;17.868;2024-02-14T19:37:41;99192.00;;;6.30;75.42
69911;BME280;63555;49.920;17.868;2024-02-14T19:42:41;99189.25;;;6.33;75.98
69911;BME280;63555;49.920;17.868;2024-02-14T19:47:42;99190.00;;;6.35;75.74
69911;BME280;63555;49.920;17.868;2024-02-14T19:52:42;99189.25;;;6.33;75.41
69911;BME280;63555;49.920;17.868;2024-02-14T19:57:43;99188.31;;;6.34;75.89
69911;BME280;63555;49.920;17.868;2024-02-14T20:02:44;99183.31;;;6.30;76.04
69911;BME280;63555;49.920;17.868;2024-02-14T20:07:45;99187.84;;;6.26;76.14
69911;BME280;63555;49.920;17.868;2024-02-14T20:12:45;99187.25;;;6.21;75.79
69911;BME280;63555;49.920;17.868;2024-02-14T20:17:46;99183.09;;;6.17;76.22
69911;BME280;63555;49.920;17.868;2024-02-14T20:22:49;99183.00;;;6.19;75.76
69911;BME280;63555;49.920;17.868;2024-02-14T20:27:50;99179.69;;;6.15;76.43
69911;BME280;63555;49.920;17.868;2024-02-14T20:32:50;99180.78;;;6.11;75.60
69911;BME280;63555;49.920;17.868;2024-02-14T20:37:51;99180.88;;;6.10;76.80
69911;BME280;63555;49.920;17.868;2024-02-14T20:42:52;99179.88;;;6.12;76.60
69911;BME280;63555;49.920;17.868;2024-02-14T20:47:52;99185.94;;;6.13;76.25
69911;BME280;63555;49.920;17.868;2024-02-14T20:52:52;99187.78;;;6.11;76.19
69911;BME280;63555;49.920;17.868;2024-02-14T20:57:53;99183.47;;;6.10;76.63
69911;BME280;63555;49.920;17.868;2024-02-14T21:02:54;99177.47;;;6.07;76.26
69911;BME280;63555;49.920;17.868;2024-02-14T21:07:54;99174.91;;;6.06;76.56
69911;BME280;63555;49.920;17.868;2024-02-14T21:12:55;99183.59;;;6.06;76.61
69911;BME280;63555;49.920;17.868;2024-02-14T21:17:55;99182.75;;;6.06;77.06
69911;BME280;63555;49.920;17.868;2024-02-14T21:22:56;99195.06;;;6.04;77.13
69911;BME280;63555;49.920;17.868;2024-02-14T21:27:57;99177.59;;;6.04;77.30
69911;BME280;63555;49.920;17.868;2024-02-14T21:32:57;99184.41;;;6.09;76.80
69911;BME280;63555;49.920;17.868;2024-02-14T21:37:57;99184.09;;;6.15;76.99
69911;BME280;63555;49.920;17.868;2024-02-14T21:42:58;99173.78;;;6.12;76.76
69911;BME280;63555;49.920;17.868;2024-02-14T21:47:58;99181.91;;;6.05;76.18
69911;BME280;63555;49.920;17.868;2024-02-14T21:53:03;99178.69;;;6.00;76.70
69911;BME280;63555;49.920;17.868;2024-02-14T21:58:03;99184.00;;;5.99;77.27
69911;BME280;63555;49.920;17.868;2024-02-14T22:03:04;99186.59;;;5.99;76.89
69911;BME280;63555;49.920;17.868;2024-02-14T22:08:05;99182.06;;;6.02;77.00
69911;BME280;63555;49.920;17.868;2024-02-14T22:13:06;99185.34;;;6.07;77.12
69911;BME280;63555;49.920;17.868;2024-02-14T22:18:07;99178.78;;;6.16;76.72
69911;BME280;63555;49.920;17.868;2024-02-14T22:23:09;99173.16;;;6.24;77.40
69911;BME280;63555;49.920;17.868;2024-02-14T22:28:09;99182.47;;;6.29;77.44
69911;BME280;63555;49.920;17.868;2024-02-14T22:33:10;99178.84;;;6.32;76.75
69911;BME280;63555;49.920;17.868;2024-02-14T22:38:10;99170.06;;;6.33;76.84
69911;BME280;63555;49.920;17.868;2024-02-14T22:43:10;99168.28;;;6.33;77.20
69911;BME280;63555;49.920;17.868;2024-02-14T22:48:11;99175.13;;;6.36;77.15
69911;BME280;63555;49.920;17.868;2024-02-14T22:53:12;99171.66;;;6.35;77.53
69911;BME280;63555;49.920;17.868;2024-02-14T22:58:13;99165.50;;;6.36;77.33
69911;BME280;63555;49.920;17.868;2024-02-14T23:03:13;99168.13;;;6.36;77.26
69911;BME280;63555;49.920;17.868;2024-02-14T23:08:15;99164.66;;;6.36;77.62
69911;BME280;63555;49.920;17.868;2024-02-14T23:13:16;99180.38;;;6.36;77.47
69911;BME280;63555;49.920;17.868;2024-02-14T23:18:17;99176.22;;;6.32;77.43
69911;BME280;63555;49.920;17.868;2024-02-14T23:23:18;99176.53;;;6.26;77.57
69911;BME280;63555;49.920;17.868;2024-02-14T23:28:19;99185.41;;;6.23;77.98
69911;BME280;63555;49.920;17.868;2024-02-14T23:33:19;99185.25;;;6.26;78.25
69911;BME280;63555;49.920;17.868;2024-02-14T23:38:19;99186.84;;;6.29;77.59
69911;BME280;63555;49.920;17.868;2024-02-14T23:43:20;99191.25;;;6.28;78.17
69911;BME280;63555;49.920;17.868;2024-02-14T23:48:20;99197.41;;;6.27;77.58
69911;BME280;63555;49.920;17.868;2024-02-14T23:53:23;99191.47;;;6.24;78.01
69911;BME280;63555;49.920;17.868;2024-02-14T23:58:24;99196.72;;;6.24;78.66
